createdAt,value
2023-01-17T00:53:16.752Z,26.64
2023-01-17T00:54:19.129Z,24.47
2023-01-17T00:55:21.018Z,23.94
2023-01-17T00:56:23.049Z,23.99
2023-01-17T00:57:26.327Z,25.41
2023-01-17T00:58:28.236Z,24.23
2023-01-17T00:59:30.797Z,20.21
2023-01-17T01:00:32.867Z,22.24
2023-01-17T01:01:35.405Z,21.43
2023-01-17T01:02:38.995Z,21.93
2023-01-17T01:03:41.146Z,22.94
2023-01-17T01:04:43.665Z,20.01
2023-01-17T01:05:47.093Z,21.71
2023-01-17T01:06:49.582Z,21.65
2023-01-17T01:07:52.108Z,22.65
2023-01-17T01:08:54.248Z,23.07
2023-01-17T01:09:56.218Z,19.73
2023-01-17T01:10:58.227Z,18.20
2023-01-17T01:12:00.364Z,20.38
2023-01-17T01:13:02.762Z,19.49
2023-01-17T01:14:06.983Z,18.34
2023-01-17T01:15:09.620Z,15.53
2023-01-17T01:16:13.201Z,18.63
2023-01-17T01:17:15.584Z,17.52
2023-01-17T01:18:17.578Z,17.03
2023-01-17T01:19:19.443Z,19.48
2023-01-17T01:20:21.452Z,20.81
2023-01-17T01:21:23.475Z,17.24
2023-01-17T01:22:25.494Z,15.98
2023-01-17T01:23:27.392Z,18.09
2023-01-17T01:24:30.206Z,20.72
2023-01-17T01:25:32.139Z,18.62
2023-01-17T01:26:34.162Z,15.63
2023-01-17T01:27:36.035Z,19.81
2023-01-17T01:28:38.056Z,18.53
2023-01-17T01:29:40.048Z,17.37
2023-01-17T01:30:42.036Z,16.67
2023-01-17T01:31:43.996Z,15.67
2023-01-17T01:32:46.084Z,19.25
2023-01-17T01:33:49.393Z,17.61
2023-01-17T01:34:51.280Z,20.86
2023-01-17T01:35:54.770Z,17.45
2023-01-17T01:36:56.911Z,15.69
2023-01-17T01:38:00.793Z,19.35
2023-01-17T01:39:03.648Z,17.15
2023-01-17T01:40:07.496Z,18.86
2023-01-17T01:41:09.402Z,19.17
2023-01-17T01:42:15.224Z,15.12
2023-01-17T01:43:20.768Z,18.03
2023-01-17T01:44:43.090Z,19.70
2023-01-17T01:45:48.902Z,18.18
2023-01-17T01:46:51.448Z,16.38
2023-01-17T01:48:02.907Z,17.17
2023-01-17T01:50:25.678Z,18.11
2023-01-17T01:51:31.362Z,15.70
2023-01-17T01:52:37.067Z,15.25
2023-01-17T01:53:42.739Z,18.87
2023-01-17T01:54:54.473Z,14.66
2023-01-17T01:55:56.508Z,19.02
2023-01-17T01:57:02.285Z,17.43
2023-01-17T01:58:10.874Z,18.18
2023-01-17T01:59:15.621Z,16.67
2023-01-17T02:00:21.620Z,18.48
2023-01-17T02:01:23.886Z,18.10
2023-01-17T02:02:29.496Z,16.61
2023-01-17T02:03:32.693Z,15.75
2023-01-17T02:04:35.530Z,15.48
2023-01-17T02:05:37.627Z,17.07
2023-01-17T02:06:49.538Z,17.95
2023-01-17T02:08:04.260Z,16.83
2023-01-17T02:09:09.874Z,15.37
2023-01-17T02:10:11.916Z,18.85
2023-01-17T02:11:14.901Z,18.59
2023-01-17T02:12:20.151Z,16.87
2023-01-17T02:13:22.117Z,19.28
2023-01-17T02:14:24.209Z,17.26
2023-01-17T02:17:49.788Z,18.89
2023-01-17T02:18:55.474Z,18.93
2023-01-17T02:20:20.639Z,18.74
2023-01-17T02:21:26.310Z,20.54
2023-01-17T02:22:38.182Z,16.41
2023-01-17T02:23:59.151Z,18.09
2023-01-17T02:25:21.754Z,16.73
2023-01-17T02:26:44.621Z,14.78
2023-01-17T02:28:17.282Z,18.01
2023-01-17T02:29:53.729Z,17.73
2023-01-17T02:31:02.578Z,20.14
2023-01-17T02:32:17.991Z,18.38
2023-01-17T02:33:23.764Z,17.31
2023-01-17T02:34:41.123Z,17.61
2023-01-17T02:36:02.203Z,17.82
2023-01-17T02:37:14.437Z,19.70
2023-01-17T02:38:36.003Z,16.92
2023-01-17T02:39:41.681Z,18.18
2023-01-17T02:40:56.523Z,17.60
2023-01-17T02:42:05.093Z,18.22
2023-01-17T02:43:10.773Z,21.03
2023-01-17T02:44:16.099Z,18.41
2023-01-17T02:45:19.691Z,19.39
2023-01-17T02:46:22.191Z,20.25
2023-01-17T02:47:26.816Z,18.54
2023-01-17T02:48:34.024Z,20.27
2023-01-17T02:49:37.125Z,21.48
2023-01-17T02:51:00.093Z,19.43
2023-01-17T02:52:23.763Z,19.13
2023-01-17T02:53:46.086Z,18.76
2023-01-17T02:55:08.694Z,19.02
2023-01-17T02:56:20.683Z,17.21
2023-01-17T02:58:42.402Z,20.88
2023-01-17T02:59:54.181Z,21.51
2023-01-17T03:01:18.436Z,19.34
2023-01-17T03:02:51.747Z,17.74
2023-01-17T03:04:04.068Z,22.09
2023-01-17T03:05:13.605Z,20.04
2023-01-17T03:06:37.879Z,18.87
2023-01-17T03:07:41.600Z,15.28
2023-01-17T03:08:46.500Z,18.16
2023-01-17T03:09:52.288Z,17.56
2023-01-17T03:10:54.838Z,19.95
2023-01-17T03:11:58.575Z,19.24
2023-01-17T03:13:02.343Z,17.43
2023-01-17T03:14:04.243Z,17.81
2023-01-17T03:15:14.310Z,16.77
2023-01-17T03:16:20.562Z,18.83
2023-01-17T03:17:26.170Z,17.49
2023-01-17T03:18:28.080Z,14.82
2023-01-17T03:19:30.926Z,14.69
2023-01-17T03:20:33.026Z,15.10
2023-01-17T03:21:35.417Z,14.01
2023-01-17T03:22:37.293Z,16.41
2023-01-17T03:23:39.791Z,16.75
2023-01-17T03:24:41.679Z,18.06
2023-01-17T03:25:43.689Z,17.63
2023-01-17T03:26:45.783Z,14.97
2023-01-17T03:27:47.862Z,16.83
2023-01-17T03:28:50.581Z,16.99
2023-01-17T03:29:52.471Z,16.74
2023-01-17T03:30:54.653Z,15.53
2023-01-17T03:31:57.705Z,16.96
2023-01-17T03:32:59.588Z,18.54
2023-01-17T03:34:01.971Z,20.55
2023-01-17T03:35:06.143Z,18.03
2023-01-17T03:36:09.574Z,17.47
2023-01-17T03:37:11.991Z,19.29
2023-01-17T03:38:15.211Z,17.42
2023-01-17T03:39:17.154Z,17.19
2023-01-17T03:40:19.155Z,17.50
2023-01-17T03:41:22.965Z,19.27
2023-01-17T03:42:24.877Z,17.06
2023-01-17T03:43:26.775Z,17.51
2023-01-17T03:44:28.697Z,20.62
2023-01-17T03:45:31.979Z,17.08
2023-01-17T03:46:34.173Z,16.19
2023-01-17T03:47:36.161Z,18.67
2023-01-17T03:48:40.576Z,17.76
2023-01-17T03:49:42.596Z,18.28
2023-01-17T03:50:44.648Z,17.29
2023-01-17T03:51:47.664Z,19.00
2023-01-17T03:52:50.052Z,19.53
2023-01-17T03:53:52.934Z,19.35
2023-01-17T03:54:55.938Z,18.19
2023-01-17T03:55:57.842Z,18.22
2023-01-17T03:57:00.887Z,16.51
2023-01-17T03:58:02.964Z,21.23
2023-01-17T03:59:04.973Z,20.11
2023-01-17T04:00:09.329Z,19.87
2023-01-17T04:01:12.665Z,20.58
2023-01-17T04:02:14.731Z,20.16
2023-01-17T04:03:17.236Z,18.79
2023-01-17T04:04:19.509Z,19.45
2023-01-17T04:05:22.510Z,20.66
2023-01-17T04:06:25.065Z,20.90
2023-01-17T04:07:27.322Z,20.83
2023-01-17T04:08:29.459Z,20.92
2023-01-17T04:09:32.172Z,26.11
2023-01-17T04:10:34.875Z,19.51
2023-01-17T04:11:37.100Z,18.16
2023-01-17T04:12:39.161Z,24.68
2023-01-17T04:13:41.140Z,20.19
2023-01-17T04:14:43.300Z,20.37
2023-01-17T04:15:47.476Z,19.09
2023-01-17T04:16:49.811Z,20.32
2023-01-17T04:17:53.297Z,20.26
2023-01-17T04:18:57.823Z,18.73
2023-01-17T04:19:59.732Z,36.53
2023-01-17T04:21:01.727Z,19.39
2023-01-17T04:22:03.749Z,20.03
2023-01-17T04:23:06.745Z,19.71
2023-01-17T04:24:08.735Z,21.52
2023-01-17T04:25:10.888Z,22.57
2023-01-17T04:26:13.627Z,22.47
2023-01-17T04:27:15.814Z,20.67
2023-01-17T04:28:17.847Z,20.26
2023-01-17T04:29:20.427Z,19.05
2023-01-17T04:30:23.119Z,21.19
2023-01-17T04:31:25.035Z,22.73
2023-01-17T04:32:27.579Z,21.15
2023-01-17T04:33:29.455Z,21.01
2023-01-17T04:34:31.681Z,24.64
2023-01-17T04:35:33.775Z,22.01
2023-01-17T04:36:35.815Z,26.27
2023-01-17T04:37:39.414Z,19.29
2023-01-17T04:38:41.302Z,20.23
2023-01-17T04:39:43.198Z,21.77
2023-01-17T04:40:45.187Z,22.31
2023-01-17T04:41:47.050Z,19.24
2023-01-17T04:42:48.911Z,20.66
2023-01-17T04:43:50.900Z,21.50
2023-01-17T04:44:52.888Z,21.89
2023-01-17T04:45:57.457Z,22.53
2023-01-17T04:46:59.543Z,21.59
2023-01-17T04:48:03.116Z,24.89
2023-01-17T04:49:05.583Z,22.01
2023-01-17T04:50:10.276Z,21.98
2023-01-17T04:51:12.179Z,22.09
2023-01-17T04:52:14.195Z,22.23
2023-01-17T04:53:16.588Z,23.88
2023-01-17T04:54:18.545Z,24.11
2023-01-17T04:55:20.420Z,20.11
2023-01-17T04:56:22.384Z,22.56
2023-01-17T04:57:24.377Z,27.33
2023-01-17T04:58:26.283Z,25.47
2023-01-17T04:59:29.348Z,23.13
2023-01-17T05:00:31.431Z,26.82
2023-01-17T05:01:33.501Z,23.75
2023-01-17T05:02:36.142Z,27.07
2023-01-17T05:03:38.079Z,25.72
2023-01-17T05:04:40.144Z,26.31
2023-01-17T05:05:43.248Z,32.57
2023-01-17T05:06:45.335Z,23.84
2023-01-17T05:07:57.504Z,19.21
2023-01-17T05:08:59.580Z,21.82
2023-01-17T05:10:02.353Z,22.27
2023-01-17T05:11:04.621Z,19.04
2023-01-17T05:12:06.507Z,25.46
2023-01-17T05:13:08.681Z,24.15
2023-01-17T05:14:10.784Z,23.97
2023-01-17T05:15:12.749Z,25.91
2023-01-17T05:16:17.449Z,23.41
2023-01-17T05:17:19.445Z,23.11
2023-01-17T05:18:21.382Z,27.88
2023-01-17T05:19:26.200Z,23.58
2023-01-17T05:20:28.232Z,23.62
2023-01-17T05:21:30.248Z,24.71
2023-01-17T05:22:32.340Z,24.36
2023-01-17T05:23:34.212Z,25.76
2023-01-17T05:24:36.110Z,27.06
2023-01-17T05:25:39.005Z,28.21
2023-01-17T05:26:41.348Z,23.28
2023-01-17T05:27:43.235Z,24.66
2023-01-17T05:28:45.298Z,24.85
2023-01-17T05:29:47.267Z,23.92
2023-01-17T05:30:49.313Z,26.05
2023-01-17T05:31:54.026Z,26.24
2023-01-17T05:32:57.325Z,26.84
2023-01-17T05:34:01.074Z,29.03
2023-01-17T05:35:03.659Z,24.91
2023-01-17T05:36:06.863Z,30.19
2023-01-17T05:37:08.785Z,26.89
2023-01-17T05:38:11.046Z,30.63
2023-01-17T05:39:13.036Z,24.09
2023-01-17T05:40:16.985Z,24.96
2023-01-17T05:41:20.781Z,25.29
2023-01-17T05:42:22.816Z,28.48
2023-01-17T05:43:24.705Z,29.25
2023-01-17T05:44:26.857Z,26.67
2023-01-17T05:45:30.692Z,26.75
2023-01-17T05:46:32.832Z,24.76
2023-01-17T05:47:34.803Z,30.45
2023-01-17T05:48:36.810Z,25.66
2023-01-17T05:49:40.841Z,28.97
2023-01-17T05:50:44.039Z,29.68
2023-01-17T05:51:45.946Z,28.68
2023-01-17T05:52:53.344Z,31.05
2023-01-17T05:53:55.381Z,31.66
2023-01-17T05:54:57.300Z,22.72
2023-01-17T05:55:59.335Z,26.85
2023-01-17T05:57:02.476Z,28.46
2023-01-17T05:58:07.821Z,29.54
2023-01-17T10:00:51.890Z,55.93
2023-01-17T10:02:08.388Z,62.74
2023-01-17T10:03:28.854Z,62.63
2023-01-17T10:04:57.399Z,58.33
2023-01-17T10:07:31.980Z,54.31
2023-01-17T10:08:46.337Z,55.81
2023-01-17T10:09:55.059Z,52.73
2023-01-17T10:11:20.826Z,48.96
2023-01-17T10:12:38.305Z,54.03
2023-01-17T10:14:13.450Z,50.57
2023-01-17T10:15:31.042Z,45.55
2023-01-17T10:16:52.328Z,45.49
2023-01-17T10:18:28.739Z,43.69
2023-01-17T10:19:50.842Z,42.89
2023-01-17T10:20:59.160Z,43.76
2023-01-17T10:22:26.474Z,49.62
2023-01-17T10:23:47.531Z,43.94
2023-01-17T10:25:05.230Z,47.32
2023-01-17T10:26:17.640Z,46.94
2023-01-17T10:27:23.325Z,44.83
2023-01-17T10:28:46.427Z,45.90
2023-01-17T10:29:50.909Z,48.74
2023-01-17T10:30:59.564Z,47.43
2023-01-17T10:32:03.243Z,45.73
2023-01-17T12:00:33.928Z,73.86
2023-01-17T12:04:37.313Z,54.43
2023-01-17T12:05:59.634Z,55.86
2023-01-17T12:07:22.140Z,56.07
2023-01-17T12:08:43.256Z,51.91
2023-01-17T12:10:13.397Z,54.51
2023-01-17T12:14:07.819Z,52.66
2023-01-17T12:15:17.039Z,51.71
2023-01-17T12:16:23.201Z,51.01
2023-01-17T12:17:31.865Z,51.08
2023-01-17T12:18:46.892Z,47.71
2023-01-17T12:20:00.673Z,48.90
2023-01-17T12:21:22.133Z,43.85
2023-01-17T12:22:51.769Z,52.01
2023-01-17T12:24:03.029Z,50.82
2023-01-17T12:26:18.673Z,50.98
2023-01-17T12:27:24.363Z,50.08
2023-01-17T12:31:31.678Z,52.51
2023-01-17T12:32:49.636Z,51.93
2023-01-17T12:34:08.129Z,55.82
2023-01-17T12:35:16.732Z,53.32
2023-01-17T12:36:28.798Z,46.68
2023-01-17T12:37:34.608Z,46.44
2023-01-17T12:38:39.328Z,48.33
2023-01-17T12:39:45.048Z,50.85
2023-01-17T12:40:50.876Z,48.18
2023-01-17T12:42:05.775Z,51.67
2023-01-17T12:43:23.512Z,49.07
2023-01-17T12:44:59.620Z,50.58
2023-01-17T12:46:22.335Z,50.61
2023-01-17T12:47:24.952Z,52.56
2023-01-17T12:48:30.629Z,50.59
2023-01-17T12:49:42.047Z,51.62
2023-01-17T12:51:00.814Z,54.62
2023-01-17T12:53:45.163Z,52.64
2023-01-17T12:54:50.875Z,52.05
2023-01-17T12:55:57.371Z,49.27
2023-01-17T12:58:21.944Z,54.82
2023-01-17T12:59:30.805Z,49.86
2023-01-17T13:00:36.611Z,49.12
2023-01-17T13:01:40.729Z,54.40
2023-01-17T13:03:12.708Z,50.60
2023-01-17T13:05:41.016Z,49.02
2023-01-17T13:06:53.842Z,50.78
2023-01-17T13:08:11.908Z,49.39
2023-01-17T13:09:18.788Z,44.17
2023-01-17T13:10:36.564Z,50.87
2023-01-17T13:11:42.448Z,48.62
2023-01-17T13:12:46.770Z,46.35
2023-01-17T13:13:50.017Z,50.77
2023-01-17T13:14:52.590Z,48.52
2023-01-17T13:15:58.375Z,51.44
2023-01-17T13:17:10.318Z,49.41
2023-01-17T13:18:17.800Z,52.15
2023-01-17T13:19:49.404Z,48.54
2023-01-17T13:21:25.585Z,52.17
2023-01-17T13:22:29.704Z,48.06
2023-01-17T13:23:41.511Z,44.96
2023-01-17T13:24:59.594Z,45.02
2023-01-17T13:26:04.602Z,54.94
2023-01-17T13:27:16.029Z,51.11
2023-01-17T13:30:11.271Z,48.86
2023-01-17T13:31:23.271Z,49.60
2023-01-17T13:32:46.142Z,46.98
2023-01-17T13:34:25.013Z,45.94
2023-01-17T13:38:55.994Z,53.68
2023-01-17T13:40:22.721Z,53.44
2023-01-17T13:41:28.389Z,55.06
2023-01-17T13:42:37.909Z,50.34
2023-01-17T13:43:42.833Z,50.26
2023-01-17T13:44:45.789Z,52.73
2023-01-17T13:45:54.457Z,50.33
2023-01-17T13:47:03.681Z,58.13
2023-01-17T13:48:15.567Z,52.18
2023-01-17T13:49:35.650Z,53.13
2023-01-17T13:50:47.761Z,51.57
2023-01-17T13:53:37.360Z,56.74
2023-01-17T13:54:45.436Z,56.92
2023-01-17T13:55:50.364Z,56.54
2023-01-17T13:56:56.784Z,58.16
2023-01-17T13:57:58.690Z,50.78
2023-01-17T20:01:59.480Z,52.17
2023-01-17T20:03:01.748Z,57.53
2023-01-17T20:05:13.893Z,59.67
2023-01-17T20:06:18.888Z,48.62
2023-01-17T20:07:22.031Z,53.37
2023-01-17T20:08:24.016Z,51.47
2023-01-17T20:09:25.904Z,48.87
2023-01-17T20:10:28.177Z,48.95
2023-01-17T20:11:30.174Z,49.50
2023-01-17T20:12:33.857Z,45.62
2023-01-17T20:13:37.681Z,45.17
2023-01-17T20:14:39.580Z,48.51
2023-01-17T20:15:41.774Z,50.39
2023-01-17T20:16:43.815Z,49.59
2023-01-17T20:17:46.233Z,47.73
2023-01-17T20:18:49.511Z,49.51
2023-01-17T20:19:51.396Z,49.86
2023-01-17T20:20:57.358Z,47.51
2023-01-17T20:21:58.703Z,40.63
2023-01-17T20:23:00.598Z,45.40
2023-01-17T20:24:03.295Z,45.11
2023-01-17T20:25:08.693Z,48.40
2023-01-17T20:26:12.553Z,46.18
2023-01-17T20:27:14.548Z,50.49
2023-01-17T20:28:16.420Z,55.46
2023-01-17T20:29:18.424Z,46.50
2023-01-17T20:30:20.859Z,43.76
2023-01-17T20:31:25.357Z,45.59
2023-01-17T20:32:27.613Z,47.44
2023-01-17T20:33:29.500Z,50.92
2023-01-17T20:34:31.410Z,43.25
2023-01-17T20:35:33.393Z,52.39
2023-01-17T20:36:37.127Z,45.57
2023-01-17T20:37:39.904Z,48.24
2023-01-17T20:38:43.593Z,50.92
2023-01-17T20:39:45.586Z,44.46
2023-01-17T20:40:54.390Z,44.18
2023-01-17T20:41:56.451Z,44.85
2023-01-17T20:42:58.660Z,50.00
2023-01-17T20:44:03.041Z,44.49
2023-01-17T20:45:06.243Z,49.63
2023-01-17T20:46:09.324Z,49.58
2023-01-17T20:47:11.576Z,47.91
2023-01-17T20:48:13.569Z,51.33
2023-01-17T20:49:17.851Z,52.29
2023-01-17T20:50:20.917Z,53.11
2023-01-17T20:51:26.148Z,47.61
2023-01-17T20:52:28.874Z,55.79
2023-01-17T20:53:32.426Z,52.87
2023-01-17T20:54:34.330Z,48.78
2023-01-17T20:55:36.204Z,44.73
2023-01-17T20:56:38.817Z,50.99
2023-01-17T20:57:40.811Z,45.31
2023-01-17T20:58:42.917Z,45.33
2023-01-17T20:59:44.934Z,42.59
2023-01-17T21:00:48.547Z,42.62
2023-01-17T21:01:50.770Z,45.59
2023-01-17T21:02:52.924Z,46.73
2023-01-17T21:03:56.743Z,43.24
2023-01-17T21:04:59.442Z,44.95
2023-01-17T21:06:07.515Z,41.31
2023-01-17T21:07:09.417Z,42.13
2023-01-17T21:08:11.412Z,42.10
2023-01-17T21:09:14.091Z,43.49
2023-01-17T21:10:16.412Z,43.42
2023-01-17T21:11:23.502Z,44.69
2023-01-17T21:12:26.321Z,41.27
2023-01-17T21:13:28.956Z,41.09
2023-01-17T21:14:31.856Z,41.16
2023-01-17T21:15:33.940Z,48.07
2023-01-17T21:16:36.311Z,43.39
2023-01-17T21:17:39.463Z,43.42
2023-01-17T21:18:45.343Z,41.24
2023-01-17T21:19:47.268Z,47.72
2023-01-17T21:20:50.277Z,46.09
2023-01-17T21:21:52.681Z,46.49
2023-01-17T21:22:54.656Z,44.89
2023-01-17T21:23:58.968Z,51.19
2023-01-17T21:25:01.006Z,53.19
2023-01-17T21:26:08.665Z,48.67
2023-01-17T21:27:10.843Z,50.74
2023-01-17T21:28:12.855Z,48.78
2023-01-17T21:29:14.835Z,49.08
2023-01-17T21:30:19.248Z,49.23
2023-01-17T21:31:28.509Z,50.32
2023-01-17T21:32:30.555Z,49.28
2023-01-17T21:33:32.536Z,49.65
2023-01-17T21:34:34.735Z,53.31
2023-01-17T21:35:36.637Z,50.18
2023-01-17T21:36:41.019Z,50.23
2023-01-17T21:37:49.214Z,45.47
2023-01-17T21:38:54.417Z,45.86
2023-01-17T21:39:56.458Z,45.81
2023-01-17T21:40:58.568Z,45.55
2023-01-17T21:42:00.560Z,43.08
2023-01-17T21:43:02.618Z,42.99
2023-01-17T21:44:07.668Z,47.73
2023-01-17T21:45:10.590Z,46.33
2023-01-17T21:46:13.835Z,41.61
2023-01-17T21:47:16.497Z,41.24
2023-01-17T21:48:18.413Z,43.31
2023-01-17T21:49:20.328Z,41.92
2023-01-17T21:50:33.049Z,43.35
2023-01-17T21:51:26.229Z,44.20
2023-01-17T21:52:28.581Z,43.45
